Terminal Aerodrome Forecast
Issued by NWS

Home | Current Version | Previous Version | Text Only | Print | Product List | Glossary On
Versions: 1 2 3 4 5 6 7 8 9 10 11 12
000
FTUS46 KMFR 240543
TAFOTH
TAF
KOTH 240543Z 2406/2506 18010KT P6SM -RA BKN020 OVC040
     FM240900 25013G21KT P6SM -RA BKN020 OVC040
     FM241400 29013G21KT P6SM -SHRA SCT025 BKN040 OVC080=

USA.gov is the U.S. government's official web portal to all federal, state and local government web resources and services.